Florence, MS (39073)

05:45 PM CDT die 27o April, anno 2017 (GMT -0500)
Whites Cove | | Change Station

Elev 322 ft 32.14 °N, 90.14 °W | Updated 1 minute ago

Serena
Serena
69.0 °F
Feels Like 69.0 °F
N
0.0
Ventus Variabilis Ventus from Magis Zephyrus quam Auster
Gusts 1.0 mph

Hodie
High -- | Low -- °F
--% Chance of Precip.
Yesterday
High -- | Low -- °F
Precip. -- in
Pressio 29.81 in
Visibilitas 10.0 milia passuum
Clouds Serena
Frigus in quo Ros apparet 61 °F
Umor 75%
Rainfall 0.00 in
Snow Depth Not available.
6:18 AM 7:38 PM
Waxing Crescent, 3% visible
METAR KJAN 272154Z 08004KT 10SM CLR 22/13 A2982 RMK AO2 SLP093 T02220133
Pressio 29.81 in
Visibilitas 10.0 milia passuum
Clouds Serena
Frigus in quo Ros apparet 61 °F
Umor 75%
Rainfall 0.00 in
Snow Depth Not available.
6:18 AM 7:38 PM
Waxing Crescent, 3% visible
METAR KJAN 272154Z 08004KT 10SM CLR 22/13 A2982 RMK AO2 SLP093 T02220133

Get Severe Weather Alerts

Thanks for signing up!

Be on the lookout for a verification email in your inbox.

You'll start receiving the daily forecast at 8 AM.

×

10-Day Weather Forecast

Almanac

Astronomy

Apr. 27, 2017 Rise Set
Actual Time
Civil Twilight
Nautical Twilight
Astronomical Twilight
Moon
Length Of Visible Light
Length of Day
Tomorrow will be .
, % of the Moon is Illuminated

Today's Extremes

State Highs State Lows

Community

WunderPhotos

WunderBlog® & News

Nearby

Air Quality

  Air Quality AQ Index Pollutant
Not available.

Snow Depth

Station Depth Elevation

Earthquake Activity

City Distance Mag. Time & Date
Minimum magnitude displayed is 2.5.

Coastal Water Temperatures

Locus Calor

Stations

Nearby Weather Stations

Station Location Temp Frigus Venti Frigus in quo Ros apparet Umor Ventus Precip. Elev Renovata Type
                   

Watches & Warnings

There are currently no watches in effect.